Time;durP1;ratioP1;P1;durP2;ratioP2;P2;SDS_P1;SDS_P2;PMS_P1;PMS_P2;Temp;Humidity;BMP_temperature;BMP_pressure;BME280_temperature;BME280_humidity;BME280_pressure;Samples;Min_cycle;Max_cycle;Signal;HPM_P1;HPM_P2
2023/03/17 00:01:35;;;;;;;3.83;1.80;;;4.90;99.90;;;;;;5033684;28;20250;-83
2023/03/17 00:04:00;;;;;;;3.63;1.77;;;4.80;99.90;;;;;;5016601;28;20182;-83
2023/03/17 00:06:29;;;;;;;4.67;1.90;;;4.90;99.90;;;;;;5015686;28;20194;-84
2023/03/17 00:08:56;;;;;;;4.17;2.27;;;4.90;99.90;;;;;;5034499;28;20181;-83
2023/03/17 00:11:22;;;;;;;3.77;2.03;;;4.90;99.90;;;;;;5033200;28;20189;-84
2023/03/17 00:13:48;;;;;;;4.67;1.77;;;4.90;99.90;;;;;;5015262;28;20263;-84
2023/03/17 00:16:28;;;;;;;4.53;1.83;;;4.90;99.90;;;;;;5016433;28;20182;-83
2023/03/17 00:18:56;;;;;;;4.00;1.97;;;4.90;99.90;;;;;;5012028;28;20602;-83
2023/03/17 00:21:29;;;;;;;6.37;1.80;;;4.90;99.90;;;;;;5012962;28;20186;-84
2023/03/17 00:23:55;;;;;;;3.77;1.97;;;4.90;99.90;;;;;;4995223;28;20194;-83
2023/03/17 00:26:22;;;;;;;3.77;1.60;;;4.90;99.90;;;;;;5027009;28;20186;-83
2023/03/17 00:28:49;;;;;;;2.73;1.77;;;5.00;99.90;;;;;;5014746;28;20285;-83
2023/03/17 00:31:19;;;;;;;2.10;1.40;;;5.00;99.90;;;;;;5015360;28;20194;-83
2023/03/17 00:33:46;;;;;;;2.73;1.80;;;4.90;99.90;;;;;;5016058;28;20218;-83
2023/03/17 00:36:22;;;;;;;1.97;1.63;;;4.90;99.90;;;;;;5033730;28;20175;-84
2023/03/17 00:38:49;;;;;;;4.13;1.87;;;5.00;99.90;;;;;;5032289;28;20519;-83
2023/03/17 00:41:15;;;;;;;2.50;1.63;;;5.00;99.90;;;;;;5032057;28;20619;-83
2023/03/17 00:43:41;;;;;;;5.43;2.10;;;4.90;99.90;;;;;;5015972;28;20619;-82
2023/03/17 00:46:16;;;;;;;2.37;1.60;;;5.00;99.90;;;;;;5016034;28;20277;-82
2023/03/17 00:48:44;;;;;;;2.90;1.83;;;4.90;99.90;;;;;;5015884;28;20273;-83
2023/03/17 00:51:09;;;;;;;3.10;1.90;;;4.90;99.90;;;;;;5015219;28;20209;-83
2023/03/17 00:53:35;;;;;;;5.10;2.20;;;5.00;99.90;;;;;;5032054;28;20575;-84
2023/03/17 00:56:02;;;;;;;5.07;2.10;;;4.90;99.90;;;;;;5015433;28;20384;-83
2023/03/17 00:58:31;;;;;;;3.00;1.80;;;4.90;99.90;;;;;;5015317;28;20672;-83
2023/03/17 01:00:58;;;;;;;2.93;1.77;;;4.90;99.90;;;;;;5033457;28;20635;-83
2023/03/17 01:03:24;;;;;;;2.50;1.77;;;4.80;99.90;;;;;;5015252;28;20278;-83
2023/03/17 01:05:52;;;;;;;1.90;1.70;;;4.90;99.90;;;;;;5014209;28;20178;-84
2023/03/17 01:08:20;;;;;;;3.97;1.73;;;4.90;99.90;;;;;;5015070;28;20197;-83
2023/03/17 01:10:46;;;;;;;2.93;1.73;;;4.80;99.90;;;;;;5015502;28;20193;-83
2023/03/17 01:13:13;;;;;;;3.40;1.73;;;4.80;99.90;;;;;;5015323;28;20297;-83
2023/03/17 01:15:45;;;;;;;3.20;1.90;;;4.80;99.90;;;;;;5015340;28;20244;-84
2023/03/17 01:18:14;;;;;;;3.23;2.10;;;4.80;99.90;;;;;;5014625;28;20178;-83
2023/03/17 01:20:41;;;;;;;4.43;1.93;;;4.70;99.90;;;;;;5014908;28;20194;-83
2023/03/17 01:23:08;;;;;;;3.27;2.17;;;4.70;99.90;;;;;;5032349;28;20561;-83
2023/03/17 01:25:35;;;;;;;3.67;1.90;;;4.70;99.90;;;;;;5015438;28;20570;-83
2023/03/17 01:28:01;;;;;;;3.67;2.00;;;4.70;99.90;;;;;;5015514;28;20218;-83
2023/03/17 01:30:33;;;;;;;3.20;2.07;;;4.70;99.90;;;;;;5014122;28;20182;-83
2023/03/17 01:32:59;;;;;;;2.57;1.67;;;4.60;99.90;;;;;;5014598;28;20170;-83
2023/03/17 01:35:26;;;;;;;3.83;1.83;;;4.60;99.90;;;;;;5015469;28;20620;-83
2023/03/17 01:37:52;;;;;;;5.37;1.90;;;4.60;99.90;;;;;;5032634;28;20299;-84
2023/03/17 01:40:24;;;;;;;4.47;1.87;;;4.50;99.90;;;;;;5015264;28;20404;-83
2023/03/17 01:43:12;;;;;;;5.93;2.20;;;4.50;99.90;;;;;;5014093;28;20183;-83
2023/03/17 01:46:16;;;;;;;3.47;2.00;;;4.60;99.90;;;;;;5014128;28;20247;-83
2023/03/17 01:49:05;;;;;;;4.63;1.80;;;4.50;99.90;;;;;;5031979;28;20182;-84
2023/03/17 01:51:57;;;;;;;4.23;1.93;;;4.50;99.90;;;;;;5015179;28;20175;-83
2023/03/17 01:54:33;;;;;;;8.00;2.13;;;4.50;99.90;;;;;;5014712;28;20207;-83
2023/03/17 01:57:14;;;;;;;2.93;2.00;;;4.50;99.90;;;;;;5033388;28;20216;-84
2023/03/17 01:59:49;;;;;;;3.33;2.00;;;4.50;99.90;;;;;;5013740;28;20258;-83
2023/03/17 02:02:21;;;;;;;5.40;2.17;;;4.50;99.90;;;;;;5032008;28;20163;-84
2023/03/17 02:04:48;;;;;;;8.50;2.30;;;4.50;99.90;;;;;;5016936;28;20174;-83
2023/03/17 02:07:14;;;;;;;5.23;2.43;;;4.50;99.90;;;;;;5018966;28;20257;-83
2023/03/17 02:09:39;;;;;;;3.97;2.20;;;4.50;99.90;;;;;;5018775;28;20631;-84
2023/03/17 02:12:06;;;;;;;3.33;2.27;;;4.50;99.90;;;;;;5035923;28;20178;-83
2023/03/17 02:14:33;;;;;;;5.40;2.40;;;4.50;99.90;;;;;;5017398;28;20206;-84
2023/03/17 02:16:58;;;;;;;4.63;2.23;;;4.50;99.90;;;;;;5018225;28;20229;-83
2023/03/17 02:19:24;;;;;;;2.93;2.20;;;4.50;99.90;;;;;;5018129;28;20182;-83
2023/03/17 02:21:53;;;;;;;4.03;1.97;;;4.50;99.90;;;;;;5035658;28;20202;-84
2023/03/17 02:24:29;;;;;;;3.90;2.47;;;4.50;99.90;;;;;;5018500;28;20174;-83
2023/03/17 02:26:59;;;;;;;3.30;2.00;;;4.50;99.90;;;;;;5035441;28;20209;-83
2023/03/17 02:29:26;;;;;;;3.93;2.03;;;4.50;99.90;;;;;;5015519;28;20364;-83
2023/03/17 02:31:52;;;;;;;3.90;2.40;;;4.50;99.90;;;;;;5035774;28;20175;-83
2023/03/17 02:34:18;;;;;;;4.13;2.60;;;4.50;99.90;;;;;;5036086;28;20199;-83
2023/03/17 02:36:45;;;;;;;4.30;2.53;;;4.40;99.90;;;;;;5018254;28;20175;-84
2023/03/17 02:39:11;;;;;;;3.13;2.27;;;4.40;99.90;;;;;;5017175;28;20183;-83
2023/03/17 02:41:37;;;;;;;4.97;1.83;;;4.40;99.90;;;;;;5034636;28;20586;-83
2023/03/17 02:44:03;;;;;;;3.27;2.20;;;4.40;99.90;;;;;;5035238;28;20283;-83
2023/03/17 02:46:29;;;;;;;3.30;2.23;;;4.40;99.90;;;;;;5017619;28;20261;-83
2023/03/17 02:48:55;;;;;;;3.50;2.27;;;4.40;99.90;;;;;;5017479;28;20190;-83
2023/03/17 02:51:20;;;;;;;3.67;2.20;;;4.40;99.90;;;;;;5015653;28;20187;-83
2023/03/17 02:53:46;;;;;;;3.77;2.47;;;4.40;99.90;;;;;;5034700;28;20198;-83
2023/03/17 02:56:11;;;;;;;4.37;2.30;;;4.40;99.90;;;;;;5017454;28;20540;-83
2023/03/17 02:58:37;;;;;;;3.07;2.10;;;4.40;99.90;;;;;;5035120;28;20309;-83
2023/03/17 03:01:03;;;;;;;3.13;2.30;;;4.40;99.90;;;;;;5017488;28;20617;-83
2023/03/17 03:03:29;;;;;;;2.77;1.90;;;4.40;99.90;;;;;;5017390;28;20197;-83
2023/03/17 03:05:57;;;;;;;3.27;2.13;;;4.40;99.90;;;;;;5016522;28;20174;-83
2023/03/17 03:08:23;;;;;;;3.30;2.20;;;4.40;99.90;;;;;;5017046;28;20178;-84
2023/03/17 03:10:49;;;;;;;5.23;2.33;;;4.40;99.90;;;;;;5034814;28;20179;-84
2023/03/17 03:13:15;;;;;;;3.40;1.87;;;4.40;99.90;;;;;;5035193;28;20201;-83
2023/03/17 03:15:42;;;;;;;3.00;2.40;;;4.40;99.90;;;;;;5016675;28;20259;-83
2023/03/17 03:18:07;;;;;;;4.00;2.20;;;4.40;99.90;;;;;;5034379;28;20201;-84
2023/03/17 03:20:33;;;;;;;4.13;2.53;;;4.30;99.90;;;;;;5034249;28;20174;-83
2023/03/17 03:22:58;;;;;;;4.17;2.23;;;4.30;99.90;;;;;;5035062;28;20179;-83
2023/03/17 03:25:24;;;;;;;4.60;2.27;;;4.30;99.90;;;;;;5016671;28;20183;-83
2023/03/17 03:27:50;;;;;;;5.00;2.30;;;4.30;99.90;;;;;;5035262;28;20181;-83
2023/03/17 03:30:17;;;;;;;3.37;2.40;;;4.20;99.90;;;;;;5015567;28;20220;-83
2023/03/17 03:32:43;;;;;;;3.67;1.87;;;4.20;99.90;;;;;;5034065;28;20212;-83
2023/03/17 03:35:09;;;;;;;4.37;2.50;;;4.20;99.90;;;;;;5034842;28;20271;-84
2023/03/17 03:37:35;;;;;;;3.03;2.30;;;4.20;99.90;;;;;;5017106;28;20206;-84
2023/03/17 03:40:01;;;;;;;3.77;2.20;;;4.10;99.90;;;;;;5034700;28;20175;-83
2023/03/17 03:42:27;;;;;;;2.87;2.30;;;4.10;99.90;;;;;;5016574;28;20628;-82
2023/03/17 03:44:53;;;;;;;3.83;2.50;;;4.00;99.90;;;;;;5015947;28;20170;-83
2023/03/17 03:47:18;;;;;;;3.17;2.40;;;4.00;99.90;;;;;;5016878;28;20183;-84
2023/03/17 03:49:45;;;;;;;4.97;2.20;;;4.00;99.90;;;;;;5016878;28;20178;-83
2023/03/17 03:52:10;;;;;;;4.53;2.00;;;3.90;99.90;;;;;;5034507;28;20181;-83
2023/03/17 03:54:36;;;;;;;5.23;2.47;;;3.90;99.90;;;;;;5016231;28;20210;-83
2023/03/17 03:57:02;;;;;;;5.60;2.40;;;3.80;99.90;;;;;;5015842;28;20289;-83
2023/03/17 03:59:29;;;;;;;3.67;2.20;;;3.80;99.90;;;;;;5033398;28;20288;-83
2023/03/17 04:01:55;;;;;;;3.50;2.37;;;3.80;99.90;;;;;;5016558;28;20209;-84
2023/03/17 04:04:21;;;;;;;4.13;2.53;;;3.80;99.90;;;;;;5016809;28;20175;-83
2023/03/17 04:06:47;;;;;;;3.70;2.67;;;3.80;99.90;;;;;;5034024;28;20174;-84
2023/03/17 04:09:13;;;;;;;3.77;2.57;;;3.90;99.90;;;;;;5015228;28;20561;-83
2023/03/17 04:11:38;;;;;;;4.47;2.60;;;3.90;99.90;;;;;;5015172;28;20193;-83
2023/03/17 04:14:05;;;;;;;7.73;2.37;;;3.90;99.90;;;;;;5015455;28;20594;-83
2023/03/17 04:16:31;;;;;;;4.80;2.50;;;4.00;99.90;;;;;;5016642;28;20712;-84
2023/03/17 04:18:56;;;;;;;3.47;2.53;;;4.00;99.90;;;;;;5016209;28;20206;-84
2023/03/17 04:21:22;;;;;;;3.23;2.30;;;4.00;99.90;;;;;;5033054;28;20668;-83
2023/03/17 04:23:48;;;;;;;3.30;2.33;;;4.00;99.90;;;;;;5008106;28;20218;-82
2023/03/17 04:26:13;;;;;;;4.60;2.43;;;4.00;99.90;;;;;;4995237;28;20179;-83
2023/03/17 04:28:39;;;;;;;3.83;2.30;;;4.00;99.90;;;;;;5001471;28;20190;-83
2023/03/17 04:31:06;;;;;;;4.47;2.90;;;4.00;99.90;;;;;;5015537;28;20683;-83
2023/03/17 04:33:32;;;;;;;3.93;2.43;;;4.00;99.90;;;;;;5015172;28;20252;-83
2023/03/17 04:35:57;;;;;;;5.33;2.83;;;4.00;99.90;;;;;;5014954;28;20186;-83
2023/03/17 04:38:23;;;;;;;4.20;2.40;;;4.00;99.90;;;;;;5015177;28;20181;-84
2023/03/17 04:40:50;;;;;;;4.17;2.90;;;3.90;99.90;;;;;;5015918;28;20254;-83
2023/03/17 04:43:17;;;;;;;4.27;3.00;;;3.90;99.90;;;;;;5015331;28;20524;-83
2023/03/17 04:45:42;;;;;;;3.90;2.60;;;3.90;99.90;;;;;;5015395;28;20171;-83
2023/03/17 04:48:08;;;;;;;4.47;2.90;;;3.90;99.90;;;;;;5014797;28;20185;-83
2023/03/17 04:50:33;;;;;;;3.70;2.60;;;3.90;99.90;;;;;;5006599;28;20186;-83
2023/03/17 04:52:59;;;;;;;3.77;2.60;;;3.90;99.90;;;;;;5015205;28;20228;-84
2023/03/17 04:55:26;;;;;;;3.33;2.53;;;4.00;99.90;;;;;;5033439;28;20563;-84
2023/03/17 04:57:52;;;;;;;4.60;2.50;;;4.00;99.90;;;;;;5033266;28;20189;-84
2023/03/17 05:00:18;;;;;;;5.53;2.87;;;4.10;99.90;;;;;;5013562;28;20194;-82
2023/03/17 05:02:44;;;;;;;4.57;2.90;;;4.10;99.90;;;;;;5012955;28;20171;-82
2023/03/17 05:05:09;;;;;;;6.63;3.03;;;4.10;99.90;;;;;;5013119;28;20179;-83
2023/03/17 05:07:35;;;;;;;8.73;2.90;;;4.20;99.90;;;;;;4996145;28;20191;-84
2023/03/17 05:10:01;;;;;;;4.23;2.93;;;4.10;99.90;;;;;;4996303;28;20183;-83
2023/03/17 05:12:27;;;;;;;4.93;3.00;;;4.10;99.90;;;;;;4999185;28;20189;-83
2023/03/17 05:14:52;;;;;;;4.80;2.70;;;4.10;99.90;;;;;;5014622;28;20397;-84
2023/03/17 05:17:18;;;;;;;6.07;2.63;;;4.10;99.90;;;;;;5014876;28;20628;-83
2023/03/17 05:19:43;;;;;;;5.50;3.10;;;4.10;99.90;;;;;;5033091;28;20178;-83
2023/03/17 05:22:10;;;;;;;5.67;2.90;;;4.10;99.90;;;;;;5015492;28;20592;-83
2023/03/17 05:24:36;;;;;;;5.80;3.43;;;4.00;99.90;;;;;;5014929;28;20221;-83
2023/03/17 05:27:01;;;;;;;6.13;3.07;;;4.00;99.90;;;;;;5032561;28;20206;-83
2023/03/17 05:29:27;;;;;;;4.50;2.80;;;4.00;99.90;;;;;;5032134;28;20628;-83
2023/03/17 05:31:53;;;;;;;4.87;2.90;;;4.00;99.90;;;;;;5015331;28;20170;-83
2023/03/17 05:34:19;;;;;;;4.27;2.50;;;4.00;99.90;;;;;;5033013;28;20202;-84
2023/03/17 05:36:45;;;;;;;3.93;2.77;;;4.00;99.90;;;;;;5014851;28;20209;-83
2023/03/17 05:39:11;;;;;;;3.83;2.80;;;4.00;99.90;;;;;;5029080;28;20201;-83
2023/03/17 05:41:36;;;;;;;5.93;3.03;;;4.00;99.90;;;;;;5033096;28;20186;-84
2023/03/17 05:44:02;;;;;;;6.50;3.17;;;4.00;99.90;;;;;;5036600;28;20184;-83
2023/03/17 05:46:28;;;;;;;7.13;2.90;;;4.00;99.90;;;;;;5019506;28;20220;-83
2023/03/17 05:48:53;;;;;;;5.43;3.40;;;4.00;99.90;;;;;;5035753;28;20175;-83
2023/03/17 05:51:20;;;;;;;3.60;2.43;;;4.00;99.90;;;;;;5018819;28;20610;-83
2023/03/17 05:53:45;;;;;;;4.67;2.93;;;4.00;99.90;;;;;;5018510;28;20217;-83
2023/03/17 05:56:12;;;;;;;4.27;2.77;;;4.10;99.90;;;;;;5036223;28;20194;-84
2023/03/17 05:58:38;;;;;;;4.27;3.00;;;4.10;99.90;;;;;;5015166;28;20699;-83
2023/03/17 06:01:04;;;;;;;4.87;3.10;;;4.10;99.90;;;;;;5036286;28;20186;-83
2023/03/17 06:03:31;;;;;;;9.37;2.97;;;4.10;99.90;;;;;;5036817;28;20580;-84
2023/03/17 06:05:57;;;;;;;4.87;2.60;;;4.10;99.90;;;;;;5037322;28;20173;-84
2023/03/17 06:08:22;;;;;;;5.87;2.93;;;4.20;99.90;;;;;;5034049;28;20183;-84
2023/03/17 06:10:48;;;;;;;4.90;3.13;;;4.20;99.90;;;;;;5035372;28;20182;-83
2023/03/17 06:13:14;;;;;;;4.67;3.20;;;4.30;99.90;;;;;;5018504;28;20184;-84
2023/03/17 06:15:41;;;;;;;5.47;3.30;;;4.30;99.90;;;;;;5017983;28;20695;-84
2023/03/17 06:18:07;;;;;;;4.33;2.80;;;4.30;99.90;;;;;;5018512;28;20175;-83
2023/03/17 06:20:33;;;;;;;5.20;3.07;;;4.40;99.90;;;;;;5035674;28;20182;-83
2023/03/17 06:22:59;;;;;;;4.17;2.67;;;4.40;99.90;;;;;;5017041;28;20183;-84
2023/03/17 06:25:25;;;;;;;4.10;2.70;;;4.40;99.90;;;;;;5017998;28;20703;-84
2023/03/17 06:27:53;;;;;;;3.87;2.73;;;4.50;99.90;;;;;;5018241;28;20186;-83
2023/03/17 06:30:19;;;;;;;4.30;2.80;;;4.50;99.90;;;;;;5018266;28;20528;-84
2023/03/17 06:32:46;;;;;;;5.37;2.97;;;4.60;99.90;;;;;;5017935;28;20190;-84
2023/03/17 06:35:12;;;;;;;4.67;2.83;;;4.60;99.90;;;;;;5017176;28;20283;-84
2023/03/17 06:37:37;;;;;;;4.53;3.03;;;4.60;99.90;;;;;;5035299;28;20540;-83
2023/03/17 06:40:08;;;;;;;5.40;2.70;;;4.70;99.90;;;;;;5034987;28;20175;-84
2023/03/17 06:42:33;;;;;;;4.40;2.70;;;4.70;99.90;;;;;;5018189;28;20568;-84
2023/03/17 06:44:59;;;;;;;3.37;2.73;;;4.80;99.90;;;;;;5017761;28;20214;-84
2023/03/17 06:47:25;;;;;;;3.87;2.80;;;4.80;99.90;;;;;;5017058;28;20178;-84
2023/03/17 06:49:51;;;;;;;4.03;2.83;;;4.80;99.90;;;;;;5033724;28;20175;-84
2023/03/17 06:52:16;;;;;;;4.93;2.97;;;4.80;99.90;;;;;;5018259;28;20174;-84
2023/03/17 06:54:43;;;;;;;4.97;2.70;;;4.90;99.90;;;;;;5017272;28;20214;-84
2023/03/17 06:57:09;;;;;;;4.67;3.00;;;5.00;99.90;;;;;;5017572;28;20183;-84
2023/03/17 06:59:35;;;;;;;4.17;2.80;;;5.00;99.90;;;;;;5033588;28;20680;-84
2023/03/17 07:02:01;;;;;;;4.47;3.00;;;5.10;99.90;;;;;;5017376;28;20189;-83
2023/03/17 07:04:27;;;;;;;4.63;2.93;;;5.10;99.90;;;;;;5017383;28;20625;-84
2023/03/17 07:06:52;;;;;;;4.10;2.50;;;5.10;99.90;;;;;;5035789;28;20190;-83
2023/03/17 07:09:18;;;;;;;4.90;2.80;;;5.10;99.90;;;;;;5017914;28;20179;-84
2023/03/17 07:11:44;;;;;;;5.90;3.10;;;5.20;99.90;;;;;;5017737;28;20514;-84
2023/03/17 07:14:09;;;;;;;3.73;2.77;;;5.30;99.90;;;;;;5018002;28;20724;-85
2023/03/17 07:16:36;;;;;;;5.23;3.00;;;5.50;99.90;;;;;;5035397;28;20220;-84
2023/03/17 07:19:02;;;;;;;4.67;2.97;;;5.60;99.90;;;;;;5035465;28;20179;-84
2023/03/17 07:21:27;;;;;;;4.10;3.00;;;5.80;99.90;;;;;;5016260;28;20510;-82
2023/03/17 07:23:53;;;;;;;4.30;2.43;;;5.80;99.90;;;;;;5016597;28;20186;-82
2023/03/17 07:26:19;;;;;;;3.80;2.57;;;6.00;99.90;;;;;;5016373;28;20174;-82
2023/03/17 07:28:45;;;;;;;4.93;2.73;;;6.10;99.90;;;;;;5035064;28;20270;-82
2023/03/17 07:31:13;;;;;;;6.03;2.73;;;6.20;99.90;;;;;;5016751;28;20508;-82
2023/03/17 07:33:39;;;;;;;5.97;2.37;;;6.30;99.90;;;;;;5016975;28;20671;-82
2023/03/17 07:36:06;;;;;;;5.67;2.73;;;6.50;99.90;;;;;;5016223;28;20225;-82
2023/03/17 07:38:32;;;;;;;4.77;2.80;;;6.60;99.90;;;;;;5034077;28;20175;-83
2023/03/17 07:40:58;;;;;;;4.63;2.93;;;6.70;99.90;;;;;;5034279;28;20265;-83
2023/03/17 07:43:24;;;;;;;6.30;2.83;;;6.80;99.90;;;;;;5017381;28;20178;-82
2023/03/17 07:45:50;;;;;;;7.43;2.60;;;6.90;99.90;;;;;;5016236;28;20175;-82
2023/03/17 07:48:17;;;;;;;4.90;2.60;;;6.90;99.90;;;;;;5015933;28;20182;-82
2023/03/17 07:50:43;;;;;;;6.03;2.77;;;7.10;99.90;;;;;;5015524;28;20259;-82
2023/03/17 07:53:09;;;;;;;5.10;2.90;;;7.20;99.90;;;;;;5033709;28;20253;-83
2023/03/17 07:55:36;;;;;;;3.40;2.60;;;7.30;99.90;;;;;;5034082;28;20193;-82
2023/03/17 07:58:02;;;;;;;4.43;2.57;;;7.40;99.90;;;;;;5016131;28;20224;-83
2023/03/17 08:00:27;;;;;;;3.53;2.50;;;7.50;99.90;;;;;;5034363;28;20531;-83
2023/03/17 08:02:55;;;;;;;5.50;2.70;;;7.60;99.90;;;;;;5034502;28;20179;-83
2023/03/17 08:05:21;;;;;;;4.63;2.90;;;7.70;99.90;;;;;;5016929;28;20640;-82
2023/03/17 08:07:47;;;;;;;5.30;2.87;;;7.80;99.90;;;;;;5033412;28;20181;-86
2023/03/17 08:10:13;;;;;;;5.23;2.87;;;7.90;99.90;;;;;;5016264;28;20621;-83
2023/03/17 08:12:40;;;;;;;4.80;2.70;;;8.00;99.90;;;;;;5016672;28;20506;-83
2023/03/17 08:15:06;;;;;;;4.00;2.67;;;8.20;99.90;;;;;;5033312;28;20209;-83
2023/03/17 08:17:34;;;;;;;4.07;2.83;;;8.30;99.90;;;;;;5015255;28;20218;-83
2023/03/17 08:19:59;;;;;;;4.60;2.40;;;8.30;99.90;;;;;;5016110;28;20183;-83
2023/03/17 08:22:25;;;;;;;4.83;2.57;;;8.40;99.90;;;;;;5015105;28;20233;-83
2023/03/17 08:24:51;;;;;;;4.97;2.50;;;8.50;99.90;;;;;;5015417;28;20229;-83
2023/03/17 08:27:18;;;;;;;4.07;2.40;;;8.50;99.90;;;;;;5032953;28;20170;-84
2023/03/17 08:29:44;;;;;;;3.90;2.70;;;8.60;99.90;;;;;;5015386;28;20618;-83
2023/03/17 08:32:10;;;;;;;5.87;2.57;;;8.70;99.90;;;;;;5033335;28;20190;-83
2023/03/17 08:34:36;;;;;;;5.83;2.87;;;8.70;99.90;;;;;;5034124;28;20667;-83
2023/03/17 08:37:02;;;;;;;3.05;2.20;;;8.80;99.90;;;;;;5016532;28;20178;-84
2023/03/17 08:39:28;;;;;;;4.93;2.40;;;8.80;99.90;;;;;;5015146;28;20198;-83
2023/03/17 08:41:54;;;;;;;4.00;2.42;;;8.80;99.90;;;;;;5015047;28;20178;-83
2023/03/17 08:44:20;;;;;;;3.95;2.60;;;8.90;99.90;;;;;;5031781;28;20214;-83
2023/03/17 08:46:48;;;;;;;5.37;2.30;;;9.00;99.90;;;;;;5015958;28;20224;-83
2023/03/17 08:49:15;;;;;;;6.50;2.58;;;9.20;99.90;;;;;;5032647;28;20682;-83
2023/03/17 08:51:41;;;;;;;3.40;2.17;;;9.30;99.90;;;;;;5016150;28;20632;-83
2023/03/17 08:54:07;;;;;;;4.95;2.53;;;9.40;99.90;;;;;;5032561;28;20241;-83
2023/03/17 08:56:33;;;;;;;3.65;2.55;;;9.40;99.90;;;;;;5015212;28;20190;-83
2023/03/17 08:58:59;;;;;;;4.80;2.40;;;9.40;99.90;;;;;;5030841;28;20237;-83
2023/03/17 09:01:26;;;;;;;6.03;2.50;;;9.50;99.90;;;;;;5032285;28;20198;-83
2023/03/17 09:03:55;;;;;;;3.40;2.55;;;9.60;99.90;;;;;;5015415;28;20621;-83
2023/03/17 09:06:21;;;;;;;5.07;2.75;;;9.60;99.90;;;;;;5033536;28;20224;-83
2023/03/17 09:08:53;;;;;;;4.00;2.67;;;9.70;99.90;;;;;;5016007;28;20229;-84
2023/03/17 09:11:22;;;;;;;5.80;2.22;;;9.80;99.90;;;;;;5015541;28;20611;-84
2023/03/17 09:13:48;;;;;;;3.13;2.03;;;9.90;99.90;;;;;;5014074;28;20206;-84
2023/03/17 09:16:16;;;;;;;5.10;2.55;;;10.00;99.90;;;;;;5014314;28;20682;-84
2023/03/17 09:18:41;;;;;;;3.85;2.13;;;10.10;99.90;;;;;;5033116;28;20321;-85
2023/03/17 09:21:10;;;;;;;4.07;2.30;;;10.20;99.90;;;;;;5015835;28;20623;-84
2023/03/17 09:23:36;;;;;;;5.97;2.67;;;10.20;99.90;;;;;;5014752;28;20186;-85
2023/03/17 09:26:02;;;;;;;5.25;2.50;;;10.30;99.90;;;;;;5031823;28;20194;-84
2023/03/17 09:28:28;;;;;;;3.22;2.55;;;10.40;99.90;;;;;;5014412;28;20190;-84
2023/03/17 09:31:01;;;;;;;4.63;2.65;;;10.40;99.90;;;;;;5033161;28;20179;-84
2023/03/17 09:33:28;;;;;;;4.40;2.75;;;10.50;99.90;;;;;;5015683;28;20207;-84
2023/03/17 09:35:55;;;;;;;2.90;2.30;;;10.60;99.90;;;;;;5033465;28;20175;-84
2023/03/17 09:38:22;;;;;;;3.88;2.50;;;10.60;99.90;;;;;;5014519;28;20178;-83
2023/03/17 09:41:30;;;;;;;3.15;2.20;;;10.60;99.90;;;;;;5014581;28;20189;-84
2023/03/17 09:44:08;;;;;;;5.95;2.53;;;10.70;99.90;;;;;;5032352;28;20324;-84
2023/03/17 09:46:39;;;;;;;4.03;2.65;;;10.80;99.90;;;;;;5033041;28;20163;-84
2023/03/17 09:49:13;;;;;;;6.32;2.67;;;10.80;99.90;;;;;;5014285;28;20178;-85
2023/03/17 09:51:39;;;;;;;3.95;2.33;;;10.90;99.90;;;;;;5032660;28;20197;-85
2023/03/17 09:54:25;;;;;;;3.75;2.60;;;11.00;99.90;;;;;;5031742;28;20218;-84
2023/03/17 09:57:00;;;;;;;3.65;2.10;;;11.10;99.90;;;;;;5014278;28;20292;-84
2023/03/17 09:59:34;;;;;;;4.75;2.30;;;11.30;99.90;;;;;;5031735;28;20238;-84
2023/03/17 10:02:01;;;;;;;4.60;2.30;;;11.40;99.90;;;;;;5013764;28;20514;-86
2023/03/17 10:04:27;;;;;;;4.22;2.40;;;11.50;99.90;;;;;;5015207;28;20194;-85
2023/03/17 10:07:01;;;;;;;3.13;2.00;;;11.60;99.90;;;;;;5014767;28;20229;-84
2023/03/17 10:09:40;;;;;;;6.07;2.05;;;11.60;99.90;;;;;;5013858;28;20206;-85
2023/03/17 10:12:37;;;;;;;4.65;2.00;;;11.80;99.90;;;;;;5014351;28;20625;-85
2023/03/17 10:15:22;;;;;;;3.88;2.15;;;12.00;99.90;;;;;;5028874;28;20211;-84
2023/03/17 10:17:51;;;;;;;3.85;2.42;;;12.00;99.90;;;;;;5032305;28;20175;-85
2023/03/17 10:20:23;;;;;;;6.80;2.22;;;12.10;99.90;;;;;;5032716;28;20229;-85
2023/03/17 10:22:53;;;;;;;3.08;2.30;;;12.20;99.90;;;;;;5015454;28;20509;-85
2023/03/17 10:25:23;;;;;;;4.78;2.40;;;12.30;99.90;;;;;;5034130;28;20601;-85
2023/03/17 10:28:07;;;;;;;8.23;2.83;;;12.30;99.80;;;;;;5019007;28;20210;-85
2023/03/17 10:30:34;;;;;;;6.47;2.63;;;12.30;99.90;;;;;;5016482;28;20155;-84
2023/03/17 10:33:02;;;;;;;4.20;2.55;;;12.40;99.90;;;;;;5009073;28;20190;-85
2023/03/17 10:35:34;;;;;;;4.55;2.45;;;12.50;99.90;;;;;;5017439;28;20301;-85
2023/03/17 10:38:01;;;;;;;2.90;2.00;;;12.50;99.50;;;;;;5017950;28;20202;-85
2023/03/17 10:40:29;;;;;;;5.97;2.35;;;12.50;99.90;;;;;;5018417;28;20186;-85
2023/03/17 10:43:04;;;;;;;3.55;2.00;;;12.60;99.20;;;;;;5036178;28;20167;-83
2023/03/17 10:45:34;;;;;;;2.72;1.67;;;12.60;99.40;;;;;;5018416;28;20174;-84
2023/03/17 10:48:03;;;;;;;3.30;2.05;;;12.60;99.90;;;;;;5034154;28;20524;-85
2023/03/17 10:50:34;;;;;;;5.32;2.17;;;12.70;99.20;;;;;;5036021;28;20163;-85
2023/03/17 10:53:04;;;;;;;7.75;2.20;;;12.70;99.90;;;;;;5034476;28;20512;-85
2023/03/17 10:55:41;;;;;;;5.05;1.92;;;12.70;99.30;;;;;;5032926;28;20601;-85
2023/03/17 10:58:24;;;;;;;7.32;1.95;;;12.70;99.40;;;;;;5035874;28;20263;-85
2023/03/17 11:01:18;;;;;;;6.18;2.20;;;12.80;99.70;;;;;;5035638;28;20217;-85
2023/03/17 11:03:46;;;;;;;2.25;1.80;;;12.90;99.90;;;;;;5017155;28;20171;-84
2023/03/17 11:06:15;;;;;;;4.25;1.95;;;13.00;99.90;;;;;;5016227;28;20682;-86
2023/03/17 11:08:53;;;;;;;3.20;2.08;;;13.10;99.70;;;;;;5016495;28;20182;-85
2023/03/17 11:11:26;;;;;;;5.05;1.83;;;13.20;99.90;;;;;;5018061;28;20178;-84
2023/03/17 11:14:27;;;;;;;3.72;2.03;;;13.40;99.90;;;;;;5031416;28;20209;-86
2023/03/17 11:16:59;;;;;;;3.30;1.90;;;13.50;98.50;;;;;;4977852;28;20720;-86
2023/03/17 11:20:08;;;;;;;3.42;1.92;;;13.50;98.60;;;;;;4998439;28;20606;-85
2023/03/17 11:22:39;;;;;;;5.50;2.00;;;13.50;99.20;;;;;;4987341;28;20191;-84
2023/03/17 11:25:19;;;;;;;3.60;1.95;;;13.60;98.60;;;;;;4997570;28;20186;-86
2023/03/17 11:27:47;;;;;;;3.55;1.95;;;13.70;99.40;;;;;;4998416;28;20632;-84
2023/03/17 11:30:33;;;;;;;3.20;2.08;;;13.70;97.70;;;;;;5016434;28;20178;-85
2023/03/17 11:33:25;;;;;;;2.58;1.77;;;13.80;98.60;;;;;;5017621;28;20178;-86
2023/03/17 11:36:09;;;;;;;7.28;2.33;;;14.00;98.40;;;;;;5003599;28;20238;-85
2023/03/17 11:38:58;;;;;;;2.83;1.88;;;14.10;97.60;;;;;;5017725;28;20171;-85
2023/03/17 11:41:44;;;;;;;4.20;2.08;;;14.30;98.60;;;;;;5015138;28;20270;-85
2023/03/17 11:44:54;;;;;;;3.60;2.00;;;14.40;97.50;;;;;;5016824;28;20193;-85
2023/03/17 11:47:33;;;;;;;6.15;2.10;;;14.50;97.30;;;;;;5017190;28;20233;-85
2023/03/17 11:50:19;;;;;;;8.68;2.30;;;14.60;97.00;;;;;;5015889;28;20620;-85
2023/03/17 11:52:57;;;;;;;6.50;2.20;;;14.60;97.00;;;;;;5033061;28;20170;-85
2023/03/17 11:55:44;;;;;;;2.85;1.70;;;14.70;97.30;;;;;;5034607;28;20209;-84
2023/03/17 11:58:40;;;;;;;2.92;1.83;;;14.70;98.20;;;;;;5017035;28;20738;-86
2023/03/17 12:01:08;;;;;;;4.15;1.90;;;14.90;97.70;;;;;;5015792;28;20245;-86
2023/03/17 12:04:09;;;;;;;4.15;2.13;;;15.00;96.40;;;;;;5016142;28;20209;-85
2023/03/17 12:06:44;;;;;;;6.68;2.17;;;15.00;97.20;;;;;;5015571;28;20208;-85
2023/03/17 12:09:19;;;;;;;3.92;1.80;;;15.10;97.10;;;;;;5015534;28;20660;-85
2023/03/17 12:11:45;;;;;;;4.40;2.13;;;15.00;96.80;;;;;;5012026;28;20183;-86
2023/03/17 12:14:19;;;;;;;3.55;2.08;;;15.00;97.20;;;;;;5004878;28;20297;-84
2023/03/17 12:17:03;;;;;;;4.05;1.60;;;15.10;97.00;;;;;;5000576;28;20221;-83
2023/03/17 12:19:54;;;;;;;2.92;1.50;;;15.20;98.40;;;;;;5016440;28;20193;-83
2023/03/17 12:22:25;;;;;;;2.20;1.55;;;15.30;97.40;;;;;;5015518;28;20231;-83
2023/03/17 12:25:05;;;;;;;3.45;1.80;;;15.30;96.80;;;;;;5014991;28;20174;-84
2023/03/17 12:27:40;;;;;;;2.90;1.60;;;15.40;97.10;;;;;;5015774;28;20238;-83
2023/03/17 12:30:22;;;;;;;2.47;1.67;;;15.40;97.80;;;;;;5033280;28;20265;-85
2023/03/17 12:32:51;;;;;;;5.45;1.60;;;15.50;97.10;;;;;;5015445;28;20163;-85
2023/03/17 12:35:33;;;;;;;4.15;1.83;;;15.60;97.70;;;;;;5015539;28;20210;-85
2023/03/17 12:38:03;;;;;;;3.45;1.98;;;15.70;95.90;;;;;;5033146;28;20167;-85
2023/03/17 12:40:34;;;;;;;2.28;1.70;;;15.80;96.80;;;;;;5015302;28;20730;-85
2023/03/17 12:43:19;;;;;;;3.70;1.77;;;16.00;96.30;;;;;;5032687;28;20171;-86
2023/03/17 12:46:00;;;;;;;2.08;1.50;;;16.10;96.10;;;;;;5015587;28;20614;-85
2023/03/17 12:48:34;;;;;;;2.60;1.65;;;16.10;95.30;;;;;;5033047;28;20523;-85
2023/03/17 12:51:31;;;;;;;4.18;1.60;;;16.20;97.40;;;;;;5015635;28;20333;-85
2023/03/17 12:53:59;;;;;;;3.85;1.65;;;16.30;96.60;;;;;;5015123;28;20573;-85
2023/03/17 12:56:30;;;;;;;3.10;1.63;;;16.50;95.50;;;;;;5032918;28;20182;-85
2023/03/17 12:59:07;;;;;;;2.10;1.20;;;16.50;93.80;;;;;;5014984;28;20230;-86
2023/03/17 13:01:37;;;;;;;1.67;1.42;;;16.50;94.20;;;;;;5015410;28;20212;-86
2023/03/17 13:04:06;;;;;;;2.10;1.38;;;16.50;95.00;;;;;;5016122;28;20217;-86
2023/03/17 13:06:44;;;;;;;2.63;1.55;;;16.50;95.70;;;;;;5024453;28;20274;-86
2023/03/17 13:09:26;;;;;;;6.40;1.50;;;16.50;95.60;;;;;;5028920;28;20217;-86